EGTE/EXT METAR and TAF weather

Enter ICAO airport designator
Station Type Date Time Source
EGTE METAR 2020/01/23 18:20 UTC NOAA

EGTE 231820Z 04006KT 7000 OVC009 04/04 Q1027


Station Type Date Time Source
EGTE Decoded METAR 2020/01/23 18:20 UTC NOAA

Exeter Airport, United Kingdom (EGTE) 50-44N 003-25W
Jan 23, 2020 - 01:20 PM EST / 2020.01.23 1820 UTC
Wind: from the NE (040 degrees) at 7 MPH (6 KT):0
Visibility: 4 mile(s):0
Sky conditions: overcast
Temperature: 39 F (4 C)
Dew Point: 39 F (4 C)
Relative Humidity: 100%
Pressure (altimeter): 30.33 in. Hg (1027 hPa)
ob: EGTE 231820Z 04006KT 7000 OVC009 04/04 Q1027
cycle: 18

Station Type Date Time Source
EGTE TAF 2012/04/19 12:15 UTC NOAA

TAF TAF EGTE 191401Z 1912/1924 31016KT 9999 SCT030 SCT035 PROB40
TEMPO 1915/1918 7000 SHRA BKN014

Example: see airport list